sensor_id;sensor_type;location;lat;lon;timestamp;temperature;humidity
51305;HTU21D;37392;50.964;6.952;2022-11-15T00:00:52;10.41;108.94
51305;HTU21D;37392;50.964;6.952;2022-11-15T00:03:20;10.42;109.17
51305;HTU21D;37392;50.964;6.952;2022-11-15T00:05:47;10.42;109.17
51305;HTU21D;37392;50.964;6.952;2022-11-15T00:08:13;10.40;109.36
51305;HTU21D;37392;50.964;6.952;2022-11-15T00:10:38;10.41;109.74
51305;HTU21D;37392;50.964;6.952;2022-11-15T00:13:09;10.50;109.32
51305;HTU21D;37392;50.964;6.952;2022-11-15T00:15:39;10.52;109.17
51305;HTU21D;37392;50.964;6.952;2022-11-15T00:18:09;10.53;109.10
51305;HTU21D;37392;50.964;6.952;2022-11-15T00:20:38;10.55;109.12
51305;HTU21D;37392;50.964;6.952;2022-11-15T00:23:04;10.51;109.58
51305;HTU21D;37392;50.964;6.952;2022-11-15T00:25:30;10.49;109.97
51305;HTU21D;37392;50.964;6.952;2022-11-15T00:27:57;10.56;109.82
51305;HTU21D;37392;50.964;6.952;2022-11-15T00:30:23;10.60;109.97
51305;HTU21D;37392;50.964;6.952;2022-11-15T00:32:49;10.63;109.72
51305;HTU21D;37392;50.964;6.952;2022-11-15T00:35:15;10.70;109.72
51305;HTU21D;37392;50.964;6.952;2022-11-15T00:37:40;10.77;109.49
51305;HTU21D;37392;50.964;6.952;2022-11-15T00:40:07;10.81;109.29
51305;HTU21D;37392;50.964;6.952;2022-11-15T00:42:33;10.90;109.11
51305;HTU21D;37392;50.964;6.952;2022-11-15T00:44:59;10.93;108.84
51305;HTU21D;37392;50.964;6.952;2022-11-15T00:47:24;10.97;108.80
51305;HTU21D;37392;50.964;6.952;2022-11-15T00:49:50;11.00;108.77
51305;HTU21D;37392;50.964;6.952;2022-11-15T00:52:15;11.03;108.67
51305;HTU21D;37392;50.964;6.952;2022-11-15T00:54:41;11.13;108.52
51305;HTU21D;37392;50.964;6.952;2022-11-15T00:57:06;11.11;108.65
51305;HTU21D;37392;50.964;6.952;2022-11-15T00:59:32;11.09;108.53
51305;HTU21D;37392;50.964;6.952;2022-11-15T01:01:57;11.10;108.52
51305;HTU21D;37392;50.964;6.952;2022-11-15T01:04:23;11.15;108.55
51305;HTU21D;37392;50.964;6.952;2022-11-15T01:06:49;11.16;108.33
51305;HTU21D;37392;50.964;6.952;2022-11-15T01:09:14;11.23;108.34
51305;HTU21D;37392;50.964;6.952;2022-11-15T01:11:40;11.27;108.11
51305;HTU21D;37392;50.964;6.952;2022-11-15T01:14:06;11.25;108.15
51305;HTU21D;37392;50.964;6.952;2022-11-15T01:16:31;11.28;108.01
51305;HTU21D;37392;50.964;6.952;2022-11-15T01:18:58;11.30;108.01
51305;HTU21D;37392;50.964;6.952;2022-11-15T01:21:24;11.27;108.22
51305;HTU21D;37392;50.964;6.952;2022-11-15T01:23:53;11.23;108.38
51305;HTU21D;37392;50.964;6.952;2022-11-15T01:26:20;11.27;108.23
51305;HTU21D;37392;50.964;6.952;2022-11-15T01:28:46;11.31;108.26
51305;HTU21D;37392;50.964;6.952;2022-11-15T01:31:15;11.33;108.14
51305;HTU21D;37392;50.964;6.952;2022-11-15T01:33:42;11.41;107.93
51305;HTU21D;37392;50.964;6.952;2022-11-15T01:36:12;11.46;107.69
51305;HTU21D;37392;50.964;6.952;2022-11-15T01:38:39;11.47;107.54
51305;HTU21D;37392;50.964;6.952;2022-11-15T01:41:05;11.49;107.53
51305;HTU21D;37392;50.964;6.952;2022-11-15T01:43:33;11.53;107.48
51305;HTU21D;37392;50.964;6.952;2022-11-15T01:46:04;11.58;107.28
51305;HTU21D;37392;50.964;6.952;2022-11-15T01:48:34;11.57;107.35
51305;HTU21D;37392;50.964;6.952;2022-11-15T01:51:04;11.61;107.37
51305;HTU21D;37392;50.964;6.952;2022-11-15T01:53:33;11.60;107.27
51305;HTU21D;37392;50.964;6.952;2022-11-15T01:56:02;11.66;107.24
51305;HTU21D;37392;50.964;6.952;2022-11-15T01:58:30;11.62;107.14
51305;HTU21D;37392;50.964;6.952;2022-11-15T02:00:55;11.67;107.11
51305;HTU21D;37392;50.964;6.952;2022-11-15T02:03:22;11.67;107.05
51305;HTU21D;37392;50.964;6.952;2022-11-15T02:05:52;11.69;107.04
51305;HTU21D;37392;50.964;6.952;2022-11-15T02:08:18;11.66;107.15
51305;HTU21D;37392;50.964;6.952;2022-11-15T02:10:47;11.64;107.17
51305;HTU21D;37392;50.964;6.952;2022-11-15T02:13:15;11.67;107.31
51305;HTU21D;37392;50.964;6.952;2022-11-15T02:16:19;11.67;107.30
51305;HTU21D;37392;50.964;6.952;2022-11-15T02:30:44;11.74;107.31
51305;HTU21D;37392;50.964;6.952;2022-11-15T02:33:32;11.77;107.23
51305;HTU21D;37392;50.964;6.952;2022-11-15T02:36:05;11.75;107.25
51305;HTU21D;37392;50.964;6.952;2022-11-15T02:41:33;11.86;107.02
51305;HTU21D;37392;50.964;6.952;2022-11-15T02:44:03;11.90;106.80
51305;HTU21D;37392;50.964;6.952;2022-11-15T02:46:54;11.96;106.55
51305;HTU21D;37392;50.964;6.952;2022-11-15T02:49:40;11.94;106.50
51305;HTU21D;37392;50.964;6.952;2022-11-15T02:52:08;11.94;106.54
51305;HTU21D;37392;50.964;6.952;2022-11-15T02:54:34;11.96;106.50
51305;HTU21D;37392;50.964;6.952;2022-11-15T02:57:23;11.91;106.58
51305;HTU21D;37392;50.964;6.952;2022-11-15T03:00:06;11.99;106.46
51305;HTU21D;37392;50.964;6.952;2022-11-15T03:05:37;12.00;106.30
51305;HTU21D;37392;50.964;6.952;2022-11-15T03:08:22;12.05;106.20
51305;HTU21D;37392;50.964;6.952;2022-11-15T03:11:15;12.06;106.20
51305;HTU21D;37392;50.964;6.952;2022-11-15T03:22:00;12.15;105.80
51305;HTU21D;37392;50.964;6.952;2022-11-15T03:24:30;12.18;105.63
51305;HTU21D;37392;50.964;6.952;2022-11-15T03:26:59;12.16;105.66
51305;HTU21D;37392;50.964;6.952;2022-11-15T03:29:29;12.16;105.70
51305;HTU21D;37392;50.964;6.952;2022-11-15T03:32:02;12.14;105.80
51305;HTU21D;37392;50.964;6.952;2022-11-15T03:40:11;12.17;105.61
51305;HTU21D;37392;50.964;6.952;2022-11-15T03:42:44;12.25;105.48
51305;HTU21D;37392;50.964;6.952;2022-11-15T03:45:19;12.23;105.26
51305;HTU21D;37392;50.964;6.952;2022-11-15T03:50:24;12.26;105.06
51305;HTU21D;37392;50.964;6.952;2022-11-15T03:52:50;12.27;105.08
51305;HTU21D;37392;50.964;6.952;2022-11-15T03:55:20;12.23;105.18
51305;HTU21D;37392;50.964;6.952;2022-11-15T03:57:50;12.22;105.34
51305;HTU21D;37392;50.964;6.952;2022-11-15T04:00:18;12.26;105.31
51305;HTU21D;37392;50.964;6.952;2022-11-15T04:02:43;12.26;105.17
51305;HTU21D;37392;50.964;6.952;2022-11-15T04:05:09;12.30;105.02
51305;HTU21D;37392;50.964;6.952;2022-11-15T04:07:34;12.30;104.94
51305;HTU21D;37392;50.964;6.952;2022-11-15T04:10:00;12.40;104.65
51305;HTU21D;37392;50.964;6.952;2022-11-15T04:12:30;12.38;104.53
51305;HTU21D;37392;50.964;6.952;2022-11-15T04:15:08;12.35;104.53
51305;HTU21D;37392;50.964;6.952;2022-11-15T04:23:03;12.36;104.50
51305;HTU21D;37392;50.964;6.952;2022-11-15T04:25:51;12.35;104.55
51305;HTU21D;37392;50.964;6.952;2022-11-15T04:28:18;12.33;104.51
51305;HTU21D;37392;50.964;6.952;2022-11-15T04:30:44;12.30;104.64
51305;HTU21D;37392;50.964;6.952;2022-11-15T04:33:10;12.26;104.86
51305;HTU21D;37392;50.964;6.952;2022-11-15T04:35:35;12.26;105.08
51305;HTU21D;37392;50.964;6.952;2022-11-15T04:38:02;12.26;105.10
51305;HTU21D;37392;50.964;6.952;2022-11-15T04:40:29;12.32;104.93
51305;HTU21D;37392;50.964;6.952;2022-11-15T04:42:55;12.30;105.01
51305;HTU21D;37392;50.964;6.952;2022-11-15T04:45:21;12.31;104.98
51305;HTU21D;37392;50.964;6.952;2022-11-15T04:47:47;12.34;104.96
51305;HTU21D;37392;50.964;6.952;2022-11-15T04:50:13;12.36;104.98
51305;HTU21D;37392;50.964;6.952;2022-11-15T04:52:41;12.32;105.07
51305;HTU21D;37392;50.964;6.952;2022-11-15T04:55:09;12.35;105.12
51305;HTU21D;37392;50.964;6.952;2022-11-15T04:57:35;12.35;105.15
51305;HTU21D;37392;50.964;6.952;2022-11-15T05:00:04;12.32;105.23
51305;HTU21D;37392;50.964;6.952;2022-11-15T05:02:31;12.33;105.26
51305;HTU21D;37392;50.964;6.952;2022-11-15T05:05:15;12.35;105.40
51305;HTU21D;37392;50.964;6.952;2022-11-15T05:07:40;12.30;105.26
51305;HTU21D;37392;50.964;6.952;2022-11-15T05:10:06;12.27;105.50
51305;HTU21D;37392;50.964;6.952;2022-11-15T05:12:32;12.20;105.71
51305;HTU21D;37392;50.964;6.952;2022-11-15T05:14:58;12.17;106.24
51305;HTU21D;37392;50.964;6.952;2022-11-15T05:17:23;12.15;106.43
51305;HTU21D;37392;50.964;6.952;2022-11-15T05:19:49;12.14;106.51
51305;HTU21D;37392;50.964;6.952;2022-11-15T05:22:14;12.11;106.62
51305;HTU21D;37392;50.964;6.952;2022-11-15T05:24:40;12.08;106.82
51305;HTU21D;37392;50.964;6.952;2022-11-15T05:27:05;12.07;106.93
51305;HTU21D;37392;50.964;6.952;2022-11-15T05:29:31;12.02;107.04
51305;HTU21D;37392;50.964;6.952;2022-11-15T05:31:57;11.92;107.40
51305;HTU21D;37392;50.964;6.952;2022-11-15T05:34:22;11.87;107.91
51305;HTU21D;37392;50.964;6.952;2022-11-15T05:36:50;11.85;108.32
51305;HTU21D;37392;50.964;6.952;2022-11-15T05:39:16;11.78;108.50
51305;HTU21D;37392;50.964;6.952;2022-11-15T05:41:50;11.84;108.59
51305;HTU21D;37392;50.964;6.952;2022-11-15T05:44:22;11.84;108.52
51305;HTU21D;37392;50.964;6.952;2022-11-15T05:46:49;11.83;108.36
51305;HTU21D;37392;50.964;6.952;2022-11-15T05:49:18;11.76;108.55
51305;HTU21D;37392;50.964;6.952;2022-11-15T05:51:45;11.67;108.94
51305;HTU21D;37392;50.964;6.952;2022-11-15T05:54:13;11.63;109.11
51305;HTU21D;37392;50.964;6.952;2022-11-15T05:56:39;11.53;109.47
51305;HTU21D;37392;50.964;6.952;2022-11-15T05:59:05;11.44;109.91
51305;HTU21D;37392;50.964;6.952;2022-11-15T06:01:32;11.29;110.39
51305;HTU21D;37392;50.964;6.952;2022-11-15T06:03:58;11.23;111.07
51305;HTU21D;37392;50.964;6.952;2022-11-15T06:06:23;11.15;111.29
51305;HTU21D;37392;50.964;6.952;2022-11-15T06:08:49;11.09;111.73
51305;HTU21D;37392;50.964;6.952;2022-11-15T06:11:15;11.02;112.01
51305;HTU21D;37392;50.964;6.952;2022-11-15T06:13:40;11.02;112.32
51305;HTU21D;37392;50.964;6.952;2022-11-15T06:16:06;10.95;112.48
51305;HTU21D;37392;50.964;6.952;2022-11-15T06:18:33;10.85;112.77
51305;HTU21D;37392;50.964;6.952;2022-11-15T06:20:59;10.85;112.78
51305;HTU21D;37392;50.964;6.952;2022-11-15T06:23:25;10.79;112.97
51305;HTU21D;37392;50.964;6.952;2022-11-15T06:25:51;10.75;113.00
51305;HTU21D;37392;50.964;6.952;2022-11-15T06:28:17;10.71;113.08
51305;HTU21D;37392;50.964;6.952;2022-11-15T06:30:42;10.63;113.23
51305;HTU21D;37392;50.964;6.952;2022-11-15T06:33:08;10.64;113.54
51305;HTU21D;37392;50.964;6.952;2022-11-15T06:35:35;10.65;113.21
51305;HTU21D;37392;50.964;6.952;2022-11-15T06:38:08;10.62;113.33
51305;HTU21D;37392;50.964;6.952;2022-11-15T06:40:35;10.62;112.95
51305;HTU21D;37392;50.964;6.952;2022-11-15T06:43:03;10.54;113.18
51305;HTU21D;37392;50.964;6.952;2022-11-15T06:45:30;10.51;113.24
51305;HTU21D;37392;50.964;6.952;2022-11-15T06:47:56;10.52;113.38
51305;HTU21D;37392;50.964;6.952;2022-11-15T06:50:23;10.49;113.37
51305;HTU21D;37392;50.964;6.952;2022-11-15T06:52:49;10.37;113.26
51305;HTU21D;37392;50.964;6.952;2022-11-15T06:55:14;10.49;113.45
51305;HTU21D;37392;50.964;6.952;2022-11-15T06:57:51;10.43;113.39
51305;HTU21D;37392;50.964;6.952;2022-11-15T07:00:18;10.55;113.16
51305;HTU21D;37392;50.964;6.952;2022-11-15T07:02:45;10.57;112.77
51305;HTU21D;37392;50.964;6.952;2022-11-15T07:05:12;10.53;112.52
51305;HTU21D;37392;50.964;6.952;2022-11-15T07:07:39;10.51;112.84
51305;HTU21D;37392;50.964;6.952;2022-11-15T07:10:05;10.53;112.53
51305;HTU21D;37392;50.964;6.952;2022-11-15T07:12:31;10.52;112.56
51305;HTU21D;37392;50.964;6.952;2022-11-15T07:14:57;10.53;112.27
51305;HTU21D;37392;50.964;6.952;2022-11-15T07:17:26;10.54;112.13
51305;HTU21D;37392;50.964;6.952;2022-11-15T07:19:51;10.56;112.01
51305;HTU21D;37392;50.964;6.952;2022-11-15T07:22:17;10.59;111.94
51305;HTU21D;37392;50.964;6.952;2022-11-15T07:24:42;10.66;111.49
51305;HTU21D;37392;50.964;6.952;2022-11-15T07:27:08;10.68;111.19
51305;HTU21D;37392;50.964;6.952;2022-11-15T07:29:34;10.75;110.91
51305;HTU21D;37392;50.964;6.952;2022-11-15T07:31:59;10.83;110.30
51305;HTU21D;37392;50.964;6.952;2022-11-15T07:34:25;10.88;110.10
51305;HTU21D;37392;50.964;6.952;2022-11-15T07:36:51;10.89;109.71
51305;HTU21D;37392;50.964;6.952;2022-11-15T07:39:16;10.89;109.67
51305;HTU21D;37392;50.964;6.952;2022-11-15T07:41:42;10.94;109.45
51305;HTU21D;37392;50.964;6.952;2022-11-15T07:44:08;11.01;109.61
51305;HTU21D;37392;50.964;6.952;2022-11-15T07:46:34;11.34;108.25
51305;HTU21D;37392;50.964;6.952;2022-11-15T07:49:00;11.70;105.82
51305;HTU21D;37392;50.964;6.952;2022-11-15T07:51:25;11.92;103.54
51305;HTU21D;37392;50.964;6.952;2022-11-15T07:53:51;12.16;101.77
51305;HTU21D;37392;50.964;6.952;2022-11-15T07:56:17;12.35;100.09
51305;HTU21D;37392;50.964;6.952;2022-11-15T07:58:42;12.42;99.09
51305;HTU21D;37392;50.964;6.952;2022-11-15T08:01:10;12.46;98.67
51305;HTU21D;37392;50.964;6.952;2022-11-15T08:03:36;12.44;98.56
51305;HTU21D;37392;50.964;6.952;2022-11-15T08:06:02;12.45;98.18
51305;HTU21D;37392;50.964;6.952;2022-11-15T08:08:28;12.45;97.79
51305;HTU21D;37392;50.964;6.952;2022-11-15T08:10:54;12.43;97.84
51305;HTU21D;37392;50.964;6.952;2022-11-15T08:13:20;12.44;98.00
51305;HTU21D;37392;50.964;6.952;2022-11-15T08:15:46;12.48;97.74
51305;HTU21D;37392;50.964;6.952;2022-11-15T08:18:14;12.50;97.39
51305;HTU21D;37392;50.964;6.952;2022-11-15T08:20:42;12.52;97.27
51305;HTU21D;37392;50.964;6.952;2022-11-15T08:23:10;12.52;97.12
51305;HTU21D;37392;50.964;6.952;2022-11-15T08:25:36;12.59;96.93
51305;HTU21D;37392;50.964;6.952;2022-11-15T08:28:04;12.64;96.32
51305;HTU21D;37392;50.964;6.952;2022-11-15T08:30:36;12.62;96.16
51305;HTU21D;37392;50.964;6.952;2022-11-15T08:33:03;12.70;95.73
51305;HTU21D;37392;50.964;6.952;2022-11-15T08:35:29;12.75;95.27
51305;HTU21D;37392;50.964;6.952;2022-11-15T08:37:54;12.86;94.78
51305;HTU21D;37392;50.964;6.952;2022-11-15T08:40:22;12.99;94.46
51305;HTU21D;37392;50.964;6.952;2022-11-15T08:42:48;13.16;93.57
51305;HTU21D;37392;50.964;6.952;2022-11-15T08:45:14;13.26;93.08
51305;HTU21D;37392;50.964;6.952;2022-11-15T08:47:40;13.43;92.46
51305;HTU21D;37392;50.964;6.952;2022-11-15T08:50:06;13.55;91.40
51305;HTU21D;37392;50.964;6.952;2022-11-15T08:52:32;13.62;90.58
51305;HTU21D;37392;50.964;6.952;2022-11-15T08:54:58;13.78;89.73
51305;HTU21D;37392;50.964;6.952;2022-11-15T08:57:24;14.00;88.99
51305;HTU21D;37392;50.964;6.952;2022-11-15T08:59:50;14.23;88.06
51305;HTU21D;37392;50.964;6.952;2022-11-15T09:02:16;14.44;86.87
51305;HTU21D;37392;50.964;6.952;2022-11-15T09:04:43;14.67;85.46
51305;HTU21D;37392;50.964;6.952;2022-11-15T09:07:10;14.84;84.37
51305;HTU21D;37392;50.964;6.952;2022-11-15T09:09:36;14.94;83.87
51305;HTU21D;37392;50.964;6.952;2022-11-15T09:12:04;14.92;83.03
51305;HTU21D;37392;50.964;6.952;2022-11-15T09:14:30;14.92;83.20
51305;HTU21D;37392;50.964;6.952;2022-11-15T09:16:56;14.91;83.36
51305;HTU21D;37392;50.964;6.952;2022-11-15T09:19:22;14.87;82.71
51305;HTU21D;37392;50.964;6.952;2022-11-15T09:21:51;15.10;82.05
51305;HTU21D;37392;50.964;6.952;2022-11-15T09:24:17;15.54;81.19
51305;HTU21D;37392;50.964;6.952;2022-11-15T09:26:43;16.14;79.60
51305;HTU21D;37392;50.964;6.952;2022-11-15T09:29:09;16.58;77.52
51305;HTU21D;37392;50.964;6.952;2022-11-15T09:31:35;16.85;76.24
51305;HTU21D;37392;50.964;6.952;2022-11-15T09:34:01;17.17;75.41
51305;HTU21D;37392;50.964;6.952;2022-11-15T09:36:27;16.85;75.44
51305;HTU21D;37392;50.964;6.952;2022-11-15T09:38:52;16.65;75.90
51305;HTU21D;37392;50.964;6.952;2022-11-15T09:44:22;16.86;75.55
51305;HTU21D;37392;50.964;6.952;2022-11-15T09:49:57;16.96;72.48
51305;HTU21D;37392;50.964;6.952;2022-11-15T09:52:24;16.91;71.48
51305;HTU21D;37392;50.964;6.952;2022-11-15T09:54:51;16.91;71.23
51305;HTU21D;37392;50.964;6.952;2022-11-15T09:57:30;16.76;71.16
51305;HTU21D;37392;50.964;6.952;2022-11-15T10:00:47;16.78;69.61
51305;HTU21D;37392;50.964;6.952;2022-11-15T10:03:30;16.64;69.67
51305;HTU21D;37392;50.964;6.952;2022-11-15T10:06:02;16.81;69.33
51305;HTU21D;37392;50.964;6.952;2022-11-15T10:11:26;17.44;67.24
51305;HTU21D;37392;50.964;6.952;2022-11-15T10:13:56;17.63;66.73
51305;HTU21D;37392;50.964;6.952;2022-11-15T10:19:32;18.11;65.35
51305;HTU21D;37392;50.964;6.952;2022-11-15T10:24:46;18.32;64.34
51305;HTU21D;37392;50.964;6.952;2022-11-15T10:27:17;18.37;63.43
51305;HTU21D;37392;50.964;6.952;2022-11-15T10:29:44;18.10;62.46
51305;HTU21D;37392;50.964;6.952;2022-11-15T10:32:18;17.81;62.61
51305;HTU21D;37392;50.964;6.952;2022-11-15T10:34:46;17.29;62.50
51305;HTU21D;37392;50.964;6.952;2022-11-15T10:37:12;16.65;63.90
51305;HTU21D;37392;50.964;6.952;2022-11-15T10:39:38;16.40;65.46
51305;HTU21D;37392;50.964;6.952;2022-11-15T10:42:36;16.28;66.99
51305;HTU21D;37392;50.964;6.952;2022-11-15T10:45:02;16.13;66.60
51305;HTU21D;37392;50.964;6.952;2022-11-15T10:47:31;15.98;67.07
51305;HTU21D;37392;50.964;6.952;2022-11-15T10:52:53;15.59;66.44
51305;HTU21D;37392;50.964;6.952;2022-11-15T10:55:30;15.42;66.75
51305;HTU21D;37392;50.964;6.952;2022-11-15T10:58:04;15.37;67.22
51305;HTU21D;37392;50.964;6.952;2022-11-15T11:00:33;15.36;67.43
51305;HTU21D;37392;50.964;6.952;2022-11-15T11:03:11;15.41;67.65
51305;HTU21D;37392;50.964;6.952;2022-11-15T11:08:36;15.29;68.65
51305;HTU21D;37392;50.964;6.952;2022-11-15T11:11:03;15.28;69.15
51305;HTU21D;37392;50.964;6.952;2022-11-15T11:13:32;15.22;68.76
51305;HTU21D;37392;50.964;6.952;2022-11-15T11:24:51;15.02;67.94
51305;HTU21D;37392;50.964;6.952;2022-11-15T11:28:04;15.00;68.32
51305;HTU21D;37392;50.964;6.952;2022-11-15T11:33:31;14.79;68.84
51305;HTU21D;37392;50.964;6.952;2022-11-15T11:38:58;14.69;69.90
51305;HTU21D;37392;50.964;6.952;2022-11-15T11:47:11;14.74;70.06
51305;HTU21D;37392;50.964;6.952;2022-11-15T11:49:51;14.71;69.88
51305;HTU21D;37392;50.964;6.952;2022-11-15T11:52:24;14.78;70.20
51305;HTU21D;37392;50.964;6.952;2022-11-15T11:55:26;14.81;70.40
51305;HTU21D;37392;50.964;6.952;2022-11-15T11:58:16;14.82;70.62
51305;HTU21D;37392;50.964;6.952;2022-11-15T12:00:54;14.89;71.18
51305;HTU21D;37392;50.964;6.952;2022-11-15T12:06:32;14.98;70.52
51305;HTU21D;37392;50.964;6.952;2022-11-15T12:09:11;15.08;70.50
51305;HTU21D;37392;50.964;6.952;2022-11-15T12:11:57;15.21;70.14
51305;HTU21D;37392;50.964;6.952;2022-11-15T12:17:22;15.30;69.36
51305;HTU21D;37392;50.964;6.952;2022-11-15T12:19:51;15.25;69.68
51305;HTU21D;37392;50.964;6.952;2022-11-15T12:22:25;15.25;69.89
51305;HTU21D;37392;50.964;6.952;2022-11-15T12:25:12;15.31;70.09
51305;HTU21D;37392;50.964;6.952;2022-11-15T12:30:21;15.39;70.64
51305;HTU21D;37392;50.964;6.952;2022-11-15T12:35:26;15.65;70.65
51305;HTU21D;37392;50.964;6.952;2022-11-15T12:38:03;15.67;70.24
51305;HTU21D;37392;50.964;6.952;2022-11-15T12:41:12;15.59;70.25
51305;HTU21D;37392;50.964;6.952;2022-11-15T12:43:44;15.55;70.23
51305;HTU21D;37392;50.964;6.952;2022-11-15T12:49:03;15.65;70.35
51305;HTU21D;37392;50.964;6.952;2022-11-15T12:59:51;15.86;69.95
51305;HTU21D;37392;50.964;6.952;2022-11-15T13:07:55;15.56;71.95
51305;HTU21D;37392;50.964;6.952;2022-11-15T13:10:32;15.60;71.96
51305;HTU21D;37392;50.964;6.952;2022-11-15T13:13:04;15.69;71.79
51305;HTU21D;37392;50.964;6.952;2022-11-15T13:15:54;15.68;72.03
51305;HTU21D;37392;50.964;6.952;2022-11-15T13:18:40;15.66;73.86
51305;HTU21D;37392;50.964;6.952;2022-11-15T13:21:20;15.61;74.46
51305;HTU21D;37392;50.964;6.952;2022-11-15T13:24:12;15.56;75.48
51305;HTU21D;37392;50.964;6.952;2022-11-15T13:26:39;15.54;75.86
51305;HTU21D;37392;50.964;6.952;2022-11-15T13:29:15;15.42;76.31
51305;HTU21D;37392;50.964;6.952;2022-11-15T13:31:43;15.37;76.66
51305;HTU21D;37392;50.964;6.952;2022-11-15T13:34:31;15.34;76.96
51305;HTU21D;37392;50.964;6.952;2022-11-15T13:37:01;15.32;77.23
51305;HTU21D;37392;50.964;6.952;2022-11-15T13:39:30;15.32;77.56
51305;HTU21D;37392;50.964;6.952;2022-11-15T13:41:57;15.34;77.53
51305;HTU21D;37392;50.964;6.952;2022-11-15T13:44:31;15.16;78.01
51305;HTU21D;37392;50.964;6.952;2022-11-15T13:49:32;15.07;78.42
51305;HTU21D;37392;50.964;6.952;2022-11-15T13:52:00;15.06;78.72
51305;HTU21D;37392;50.964;6.952;2022-11-15T13:54:29;14.99;78.80
51305;HTU21D;37392;50.964;6.952;2022-11-15T13:57:03;15.00;78.98
51305;HTU21D;37392;50.964;6.952;2022-11-15T13:59:34;14.98;79.05
51305;HTU21D;37392;50.964;6.952;2022-11-15T14:02:11;14.97;79.09
51305;HTU21D;37392;50.964;6.952;2022-11-15T14:04:45;14.97;79.14
51305;HTU21D;37392;50.964;6.952;2022-11-15T14:07:19;14.98;79.06
51305;HTU21D;37392;50.964;6.952;2022-11-15T14:09:47;14.98;79.01
51305;HTU21D;37392;50.964;6.952;2022-11-15T14:12:26;14.97;79.19
51305;HTU21D;37392;50.964;6.952;2022-11-15T14:14:58;14.97;79.28
51305;HTU21D;37392;50.964;6.952;2022-11-15T14:19:53;14.94;79.47
51305;HTU21D;37392;50.964;6.952;2022-11-15T14:22:24;14.93;79.62
51305;HTU21D;37392;50.964;6.952;2022-11-15T14:25:19;14.91;79.82
51305;HTU21D;37392;50.964;6.952;2022-11-15T14:30:50;14.82;79.95
51305;HTU21D;37392;50.964;6.952;2022-11-15T14:33:27;14.79;80.09
51305;HTU21D;37392;50.964;6.952;2022-11-15T14:35:55;14.79;80.15
51305;HTU21D;37392;50.964;6.952;2022-11-15T14:38:25;14.75;80.20
51305;HTU21D;37392;50.964;6.952;2022-11-15T14:40:51;14.78;80.14
51305;HTU21D;37392;50.964;6.952;2022-11-15T14:43:17;14.72;80.32
51305;HTU21D;37392;50.964;6.952;2022-11-15T14:45:42;14.74;80.32
51305;HTU21D;37392;50.964;6.952;2022-11-15T14:48:08;14.74;80.34
51305;HTU21D;37392;50.964;6.952;2022-11-15T14:50:35;14.77;80.39
51305;HTU21D;37392;50.964;6.952;2022-11-15T14:53:02;14.75;80.46
51305;HTU21D;37392;50.964;6.952;2022-11-15T14:55:33;14.73;80.63
51305;HTU21D;37392;50.964;6.952;2022-11-15T14:58:05;14.70;80.72
51305;HTU21D;37392;50.964;6.952;2022-11-15T15:00:39;14.64;81.01
51305;HTU21D;37392;50.964;6.952;2022-11-15T15:03:06;14.58;81.29
51305;HTU21D;37392;50.964;6.952;2022-11-15T15:05:35;14.52;81.60
51305;HTU21D;37392;50.964;6.952;2022-11-15T15:08:01;14.49;81.93
51305;HTU21D;37392;50.964;6.952;2022-11-15T15:10:32;14.41;82.24
51305;HTU21D;37392;50.964;6.952;2022-11-15T15:13:03;14.41;82.45
51305;HTU21D;37392;50.964;6.952;2022-11-15T15:15:33;14.38;82.52
51305;HTU21D;37392;50.964;6.952;2022-11-15T15:18:04;14.33;82.77
51305;HTU21D;37392;50.964;6.952;2022-11-15T15:20:33;14.28;83.10
51305;HTU21D;37392;50.964;6.952;2022-11-15T15:22:59;14.26;83.23
51305;HTU21D;37392;50.964;6.952;2022-11-15T15:25:30;14.23;83.35
51305;HTU21D;37392;50.964;6.952;2022-11-15T15:27:58;14.22;83.36
51305;HTU21D;37392;50.964;6.952;2022-11-15T15:30:26;14.21;83.55
51305;HTU21D;37392;50.964;6.952;2022-11-15T15:32:55;14.14;83.74
51305;HTU21D;37392;50.964;6.952;2022-11-15T15:35:21;14.10;83.94
51305;HTU21D;37392;50.964;6.952;2022-11-15T15:37:47;14.11;84.03
51305;HTU21D;37392;50.964;6.952;2022-11-15T15:40:18;14.11;84.07
51305;HTU21D;37392;50.964;6.952;2022-11-15T15:42:46;14.09;84.31
51305;HTU21D;37392;50.964;6.952;2022-11-15T15:45:12;14.07;84.38
51305;HTU21D;37392;50.964;6.952;2022-11-15T15:47:40;14.08;84.56
51305;HTU21D;37392;50.964;6.952;2022-11-15T15:50:26;14.01;84.80
51305;HTU21D;37392;50.964;6.952;2022-11-15T15:52:55;14.01;85.03
51305;HTU21D;37392;50.964;6.952;2022-11-15T15:55:22;13.99;85.13
51305;HTU21D;37392;50.964;6.952;2022-11-15T15:57:48;13.92;85.42
51305;HTU21D;37392;50.964;6.952;2022-11-15T16:00:15;13.86;85.85
51305;HTU21D;37392;50.964;6.952;2022-11-15T16:02:41;13.81;86.10
51305;HTU21D;37392;50.964;6.952;2022-11-15T16:05:08;13.88;86.05
51305;HTU21D;37392;50.964;6.952;2022-11-15T16:07:34;13.91;85.84
51305;HTU21D;37392;50.964;6.952;2022-11-15T16:10:00;13.89;85.83
51305;HTU21D;37392;50.964;6.952;2022-11-15T16:12:30;13.93;85.95
51305;HTU21D;37392;50.964;6.952;2022-11-15T16:14:56;13.96;85.87
51305;HTU21D;37392;50.964;6.952;2022-11-15T16:17:24;13.97;85.84
51305;HTU21D;37392;50.964;6.952;2022-11-15T16:19:51;13.99;85.72
51305;HTU21D;37392;50.964;6.952;2022-11-15T16:22:17;14.05;85.65
51305;HTU21D;37392;50.964;6.952;2022-11-15T16:24:43;14.04;85.64
51305;HTU21D;37392;50.964;6.952;2022-11-15T16:27:19;14.00;85.74
51305;HTU21D;37392;50.964;6.952;2022-11-15T16:29:46;14.05;85.59
51305;HTU21D;37392;50.964;6.952;2022-11-15T16:32:12;14.09;85.44
51305;HTU21D;37392;50.964;6.952;2022-11-15T16:34:38;14.08;85.45
51305;HTU21D;37392;50.964;6.952;2022-11-15T16:37:05;14.07;85.55
51305;HTU21D;37392;50.964;6.952;2022-11-15T16:39:31;14.06;85.47
51305;HTU21D;37392;50.964;6.952;2022-11-15T16:41:58;14.05;85.56
51305;HTU21D;37392;50.964;6.952;2022-11-15T16:44:25;14.05;85.58
51305;HTU21D;37392;50.964;6.952;2022-11-15T16:46:51;14.06;85.71
51305;HTU21D;37392;50.964;6.952;2022-11-15T16:49:19;14.03;85.71
51305;HTU21D;37392;50.964;6.952;2022-11-15T16:51:46;14.01;85.78
51305;HTU21D;37392;50.964;6.952;2022-11-15T16:54:13;14.03;85.89
51305;HTU21D;37392;50.964;6.952;2022-11-15T16:56:39;13.99;85.92
51305;HTU21D;37392;50.964;6.952;2022-11-15T16:59:06;13.99;85.92
51305;HTU21D;37392;50.964;6.952;2022-11-15T17:01:36;14.03;85.87
51305;HTU21D;37392;50.964;6.952;2022-11-15T17:04:11;14.00;85.97
51305;HTU21D;37392;50.964;6.952;2022-11-15T17:06:42;14.00;86.04
51305;HTU21D;37392;50.964;6.952;2022-11-15T17:09:14;13.94;86.23
51305;HTU21D;37392;50.964;6.952;2022-11-15T17:11:41;13.98;86.22
51305;HTU21D;37392;50.964;6.952;2022-11-15T17:14:07;14.01;86.22
51305;HTU21D;37392;50.964;6.952;2022-11-15T17:16:36;13.99;86.32
51305;HTU21D;37392;50.964;6.952;2022-11-15T17:19:13;13.98;86.45
51305;HTU21D;37392;50.964;6.952;2022-11-15T17:21:41;13.94;86.54